Latest Weather Observations for Pallamana

IDS60801

Issued at 12:02 pm CST Tuesday 22 September 2020 (issued every 10 minutes, with the page automatically refreshed every 10 minutes)

About weather observations | Map of weather stations | Latest weather observations for SA | Other Formats
Station Details ID: 024584 Name: PALLAMANA AERODROME Lat: -35.06 Lon: 139.23 Height: 45.0 m
Data from the previous 72 hours. | See also: Recent months at Pallamana
Date/Time
CST
Temp
°C
App
Temp
°C
Dew
Point
°C
Rel
Hum
%
Delta-T
°C
Wind Press
QNH
hPa
Press
MSL
hPa
Rain since
9am
mm
Dir  Spd
km/h
Gust
km/h
Spd
kts
Gust
kts
22/12:00pm 15.3 8.3 6.7 56 4.2 WNW 33 46 18 25 1012.2 1012.2 0.2
22/11:49am 15.1 8.4 7.2 59 3.9 WNW 32 46 17 25 1012.2 1012.2 0.2
22/11:39am 13.4 7.1 9.1 75 2.2 W 32 50 17 27 1012.4 1012.4 0.2
22/11:33am 13.6 7.6 8.6 72 2.5 W 30 50 16 27 1012.3 1012.3 0.2
22/11:30am 15.3 9.3 7.2 58 4.0 W 28 43 15 23 1012.1 1012.1 0.0
22/11:00am 16.2 9.4 5.1 47 5.3 WNW 30 46 16 25 1011.9 1011.9 0.0
22/10:30am 16.0 9.4 5.9 51 4.9 W 30 50 16 27 1011.8 1011.8 0.0
22/10:00am 15.3 9.2 6.5 55 4.3 W 28 48 15 26 1011.5 1011.5 0.0
22/09:31am 15.2 7.9 5.3 51 4.7 WNW 33 54 18 29 1011.1 1011.2 0.0
22/09:30am 15.3 8.0 5.4 51 4.7 WNW 33 46 18 25 1011.1 1011.2 0.0
22/09:16am 14.3 8.0 5.9 57 4.0 WNW 28 52 15 28 1011.0 1011.1 0.0
22/09:00am 14.7 8.4 5.9 55 4.2 WNW 28 44 15 24 1010.9 1011.0 2.0
22/08:30am 13.7 7.6 6.4 61 3.5 WNW 28 48 15 26 1010.5 1010.6 2.0
22/08:15am 14.1 7.8 5.9 57 3.9 W 28 48 15 26 1009.9 1010.0 2.0
22/08:00am 13.7 7.4 5.9 59 3.7 WNW 28 44 15 24 1009.8 1009.9 2.0
22/07:33am 13.0 6.4 6.1 63 3.3 WNW 30 48 16 26 1009.6 1009.6 2.0
22/07:30am 13.0 6.0 6.1 63 3.3 WNW 32 48 17 26 1009.5 1009.5 2.0
22/07:23am 12.9 6.6 5.7 61 3.4 WNW 28 48 15 26 1009.2 1009.2 2.0
22/07:00am 12.9 7.4 5.7 61 3.4 WNW 24 48 13 26 1008.7 1008.7 2.0
22/06:30am 12.5 6.7 6.4 66 2.9 WNW 26 33 14 18 1008.6 1008.6 2.0
22/06:10am 12.4 6.2 6.3 66 2.9 WNW 28 48 15 26 1008.2 1008.2 2.0
22/06:00am 11.9 7.0 7.1 72 2.3 WNW 22 37 12 20 1008.2 1008.2 2.0
22/05:30am 12.7 6.6 6.4 65 3.0 WNW 28 48 15 26 1007.9 1007.9 2.0
22/05:29am 12.6 6.4 6.3 65 3.0 WNW 28 48 15 26 1007.9 1007.9 2.0
22/05:00am 12.4 7.5 7.0 69 2.6 WNW 22 35 12 19 1007.6 1007.6 2.0
22/04:30am 12.6 6.5 6.5 66 2.9 WNW 28 48 15 26 1007.4 1007.4 2.0
22/04:28am 12.6 6.5 6.6 67 2.9 WNW 28 48 15 26 1007.3 1007.3 2.0
22/04:00am 12.4 7.9 6.8 68 2.7 WNW 20 33 11 18 1007.3 1007.3 2.0
22/03:30am 12.0 8.1 7.0 71 2.4 WNW 17 28 9 15 1007.4 1007.4 2.0
22/03:00am 12.1 7.5 6.4 68 2.7 NW 20 41 11 22 1007.5 1007.5 2.0
22/02:30am 12.1 8.7 7.8 75 2.1 WNW 15 20 8 11 1007.6 1007.6 2.0
22/02:00am 12.0 7.8 7.5 74 2.2 WNW 19 33 10 18 1008.0 1008.0 2.0
22/01:30am 12.4 8.5 7.3 71 2.5 WNW 17 24 9 13 1008.1 1008.1 1.8
22/01:00am 12.3 7.9 7.4 72 2.4 WNW 20 28 11 15 1008.0 1008.0 1.8
22/12:30am 11.7 9.4 7.6 76 2.0 NW 9 15 5 8 1008.3 1008.3 1.8
22/12:00am 11.2 8.4 7.0 75 2.0 NW 11 19 6 10 1008.6 1008.6 1.8
 
Date/Time
CST
Temp
°C
App
Temp
°C
Dew
Point
°C
Rel
Hum
%
Delta-T
°C
Wind Press
QNH
hPa
Press
MSL
hPa
Rain since
9am
mm
Dir  Spd
km/h
Gust
km/h
Spd
kts
Gust
kts
21/11:30pm 11.6 9.6 8.6 82 1.5 WNW 9 15 5 8 1008.4 1008.4 1.8
21/11:00pm 11.4 8.6 8.6 83 1.4 WNW 13 20 7 11 1008.5 1008.5 1.8
21/10:43pm 11.7 7.7 9.1 84 1.3 WNW 20 32 11 17 1008.5 1008.5 1.8
21/10:30pm 12.0 7.7 9.4 84 1.3 W 22 33 12 18 1008.6 1008.6 1.6
21/10:23pm 12.1 7.5 9.5 84 1.3 W 24 35 13 19 1008.6 1008.6 1.2
21/10:00pm 13.3 9.6 7.8 69 2.7 NW 17 26 9 14 1008.0 1008.0 0.2
21/09:30pm 12.3 9.9 8.7 79 1.8 N 11 15 6 8 1008.0 1008.0 0.2
21/09:00pm 14.0 10.4 6.6 61 3.6 NW 15 22 8 12 1007.8 1007.8 0.0
21/08:30pm 13.2 9.6 5.0 57 3.8 WNW 13 17 7 9 1007.5 1007.5 0.0
21/08:00pm 14.1 10.3 4.1 51 4.6 NW 13 17 7 9 1007.4 1007.4 0.0
21/07:30pm 14.6 10.5 6.1 56 4.1 NNW 17 22 9 12 1006.9 1006.9 0.0
21/07:00pm 14.6 11.0 6.8 59 3.8 WNW 15 24 8 13 1006.4 1006.4 0.0
21/06:30pm 15.3 10.7 6.3 55 4.4 W 20 30 11 16 1005.7 1005.7 0.0
21/06:00pm 16.1 10.5 5.5 49 5.1 WNW 24 37 13 20 1005.1 1005.1 0.0
21/05:37pm 16.8 10.4 5.4 47 5.5 WNW 28 46 15 25 1004.8 1004.8 0.0
21/05:30pm 17.1 9.9 5.0 44 5.8 WNW 32 46 17 25 1004.8 1004.8 0.0
21/05:00pm 17.8 11.2 6.0 46 5.8 WNW 30 54 16 29 1004.2 1004.2 0.0
21/04:30pm 18.6 12.1 6.4 45 6.1 WNW 30 54 16 29 1003.3 1003.3 0.0
21/04:01pm 18.5 9.4 6.0 44 6.2 WNW 43 61 23 33 1002.9 1002.9 0.0
21/04:00pm 18.4 9.1 5.8 43 6.2 WNW 44 61 24 33 1002.9 1002.9 0.0
21/03:30pm 18.4 11.0 6.9 47 5.8 WNW 35 57 19 31 1003.2 1003.2 0.0
21/03:00pm 18.9 10.1 5.5 41 6.6 NW 41 59 22 32 1003.5 1003.5 0.0
21/02:30pm 19.0 11.5 6.2 43 6.4 WNW 35 57 19 31 1003.6 1003.6 0.0
21/02:00pm 19.4 9.2 3.3 34 7.6 NW 46 69 25 37 1003.2 1003.2 0.0
21/01:30pm 19.3 8.1 4.1 36 7.3 NW 52 78 28 42 1003.1 1003.1 0.0
21/01:00pm 19.4 8.3 2.7 33 7.8 NW 50 74 27 40 1003.0 1003.0 0.0
21/12:30pm 19.3 7.2 0.8 29 8.3 NW 54 76 29 41 1003.2 1003.2 0.0
21/12:00pm 19.2 6.9 -0.1 27 8.5 NW 54 83 29 45 1003.3 1003.3 0.0
21/11:30am 19.6 8.5 0.3 27 8.6 NW 48 82 26 44 1003.8 1003.8 0.0
21/11:22am 19.1 7.5 -1.0 25 8.6 NW 50 82 27 44 1004.0 1004.0 0.0
21/11:00am 19.2 9.4 -0.1 27 8.5 NW 41 61 22 33 1004.4 1004.4 0.0
21/10:45am 19.0 9.7 -2.1 24 8.9 NW 37 61 20 33 1004.6 1004.6 0.0
21/10:30am 18.7 9.1 -1.5 25 8.6 NNW 39 52 21 28 1004.9 1004.9 0.0
21/10:00am 17.7 8.6 -0.3 29 7.8 NNW 37 56 20 30 1005.0 1005.0 0.0
21/09:56am 17.8 9.2 -0.1 30 7.8 NNW 35 56 19 30 1005.0 1005.0 0.0
21/09:30am 17.2 9.3 0.9 33 7.2 NNW 32 46 17 25 1005.4 1005.4 0.0
21/09:24am 16.9 9.3 0.7 33 7.1 NNW 30 46 16 25 1005.4 1005.4 0.0
21/09:04am 16.2 8.4 1.6 37 6.5 NNW 32 43 17 23 1005.3 1005.3 0.0
21/09:00am 15.8 7.8 1.6 38 6.3 NNW 33 43 18 23 1005.4 1005.4 5.8
21/08:30am 13.5 6.3 4.9 56 4.0 N 32 39 17 21 1005.4 1005.4 5.8
21/08:00am 12.4 5.5 4.8 60 3.5 N 30 41 16 22 1005.5 1005.5 5.8
21/07:30am 10.7 4.4 5.5 70 2.4 N 28 37 15 20 1005.7 1005.7 5.8
21/07:00am 9.5 4.4 5.8 78 1.7 N 22 30 12 16 1005.9 1005.9 5.8
21/06:30am 7.9 3.8 6.2 89 0.8 N 17 20 9 11 1006.0 1006.0 5.8
21/06:00am 6.7 2.5 5.6 93 0.5 N 17 20 9 11 1005.9 1005.9 5.8
21/05:30am 6.2 2.2 5.1 93 0.5 N 15 17 8 9 1005.9 1005.9 5.8
21/05:00am 6.8 2.8 5.0 88 0.8 N 15 19 8 10 1005.9 1005.9 5.8
21/04:30am 7.5 3.6 5.3 86 1.0 N 15 17 8 9 1005.6 1005.6 5.8
21/04:00am 8.4 4.9 5.5 82 1.3 N 13 19 7 10 1005.5 1005.5 5.8
21/03:30am 8.9 5.4 5.4 79 1.6 NNW 13 17 7 9 1005.6 1005.6 5.8
21/03:00am 11.5 8.7 5.0 64 3.0 WNW 9 15 5 8 1005.1 1005.1 5.8
21/02:30am 12.2 9.1 5.6 64 3.1 NW 11 17 6 9 1005.4 1005.4 5.8
21/02:00am 11.1 8.9 6.0 71 2.4 WNW 7 11 4 6 1005.6 1005.6 5.8
21/01:30am 11.5 8.5 6.0 69 2.6 N 11 17 6 9 1006.1 1006.1 5.8
21/01:00am 11.5 8.9 6.0 69 2.6 NE 9 11 5 6 1006.3 1006.3 5.8
21/12:30am 13.6 10.3 4.8 55 4.1 NW 11 17 6 9 1006.3 1006.3 5.8
21/12:00am 14.3 8.8 4.1 50 4.7 W 22 35 12 19 1005.8 1005.8 5.8
 
Date/Time
CST
Temp
°C
App
Temp
°C
Dew
Point
°C
Rel
Hum
%
Delta-T
°C
Wind Press
QNH
hPa
Press
MSL
hPa
Rain since
9am
mm
Dir  Spd
km/h
Gust
km/h
Spd
kts
Gust
kts
20/11:30pm 14.4 11.4 6.1 57 4.0 NW 11 19 6 10 1006.1 1006.1 5.8
20/11:00pm 12.7 11.1 8.7 76 2.0 SE 7 11 4 6 1006.4 1006.4 5.8
20/10:30pm 13.3 11.8 9.2 76 2.1 SSE 7 13 4 7 1005.8 1005.8 5.8
20/10:00pm 13.9 12.4 9.0 72 2.5 W 7 9 4 5 1005.8 1005.8 5.8
20/09:30pm 15.0 12.5 8.3 64 3.4 W 11 26 6 14 1005.7 1005.7 5.8
20/09:00pm 15.2 14.0 9.4 68 3.0 SSW 6 9 3 5 1005.2 1005.2 5.8
20/08:30pm 16.5 15.0 10.5 67 3.2 WSW 9 17 5 9 1005.2 1005.2 5.8
20/08:00pm 16.6 15.2 12.1 75 2.5 W 11 19 6 10 1004.2 1004.2 5.8
20/07:30pm 16.9 13.3 12.0 73 2.7 W 22 35 12 19 1003.1 1003.1 5.8
20/07:00pm 17.2 12.4 11.7 70 3.0 W 28 43 15 23 1002.7 1002.7 5.8
20/06:30pm 16.9 12.4 12.6 76 2.4 WNW 28 46 15 25 1002.6 1002.6 5.6
20/06:24pm 16.7 13.1 13.1 79 2.0 WNW 24 35 13 19 1002.5 1002.5 5.4
20/06:00pm 15.1 8.4 14.6 97 0.3 NW 43 93 23 50 1001.4 1001.4 2.0
20/05:56pm 19.7 13.7 12.0 61 4.3 NNW 35 93 19 50 1001.5 1001.5 0.0
20/05:55pm 24.8 18.8 8.5 35 8.8 NNW 30 93 16 50 1001.0 1001.0 0.0
20/05:30pm 25.6 19.7 7.4 31 9.7 N 28 41 15 22 999.0 999.0 0.0
20/05:00pm 26.0 19.7 7.2 30 9.9 N 30 41 16 22 999.4 999.4 0.0
20/04:30pm 27.5 20.8 7.2 27 10.9 N 32 48 17 26 999.7 999.7 0.0
20/04:00pm 27.4 19.9 7.8 29 10.6 N 37 50 20 27 999.9 999.9 0.0
20/03:42pm 27.4 19.8 7.6 28 10.6 N 37 56 20 30 999.8 999.8 0.0
20/03:30pm 27.4 19.6 8.1 29 10.5 N 39 54 21 29 999.8 999.8 0.0
20/03:04pm 27.7 20.7 8.6 30 10.4 N 35 54 19 29 1000.1 1000.1 0.0
20/03:00pm 27.0 19.5 8.0 30 10.3 N 37 54 20 29 1000.2 1000.2 0.0
20/02:30pm 26.8 19.4 8.5 31 10.0 N 37 52 20 28 1000.8 1000.8 0.0
20/02:00pm 26.8 19.5 8.7 32 9.9 N 37 50 20 27 1001.2 1001.2 0.0
20/01:41pm 26.2 19.7 9.1 34 9.4 N 33 54 18 29 1001.7 1001.7 0.0
20/01:30pm 25.7 19.6 9.9 37 8.8 N 32 43 17 23 1001.7 1001.7 0.0
20/01:00pm 25.5 19.3 9.3 36 8.9 N 32 43 17 23 1002.4 1002.4 0.0
20/12:30pm 25.0 19.6 11.0 41 7.9 N 30 43 16 23 1003.0 1003.0 0.0
20/12:00pm 24.4 18.6 10.9 42 7.6 N 32 43 17 23 1003.6 1003.6 0.0
20/11:30am 23.0 16.1 10.3 44 7.0 N 37 48 20 26 1003.8 1003.8 0.0
20/11:00am 22.9 16.9 10.9 46 6.7 N 33 48 18 26 1004.0 1004.0 0.0
20/10:30am 21.8 16.0 10.8 49 6.1 N 32 43 17 23 1004.8 1004.8 0.0
20/10:00am 21.5 17.4 11.3 52 5.7 N 24 35 13 19 1005.5 1005.5 0.0
20/09:30am 20.5 16.4 11.5 56 5.0 N 24 32 13 17 1006.0 1006.0 0.0
20/09:00am 18.7 14.6 11.6 63 3.9 N 24 32 13 17 1006.3 1006.3 1.6
20/08:30am 17.9 13.9 11.9 68 3.3 N 24 32 13 17 1006.3 1006.3 1.6
20/08:00am 16.0 13.8 12.2 78 2.1 N 15 19 8 10 1006.3 1006.3 1.6
20/07:30am 14.2 13.2 12.4 89 1.0 NNW 9 11 5 6 1006.5 1006.5 1.6
20/07:00am 12.5 10.8 11.2 92 0.7 NNE 11 15 6 8 1006.3 1006.3 1.6
20/06:30am 10.8 8.6 9.4 91 0.7 NNW 11 13 6 7 1006.2 1006.2 1.6
20/06:00am 10.3 8.1 9.5 95 0.4 NNW 11 15 6 8 1006.3 1006.3 1.6
20/05:30am 9.6 7.6 8.8 95 0.4 N 9 13 5 7 1005.9 1005.9 1.6
20/05:00am 8.7 6.9 7.9 95 0.4 N 7 11 4 6 1005.9 1005.9 1.6
20/04:30am 10.2 8.3 9.2 93 0.5 NNW 9 13 5 7 1005.8 1005.8 1.6
20/04:00am 8.5 8.0 7.7 95 0.4 CALM 0 0 0 0 1005.7 1005.7 1.6
20/03:30am 9.8 8.7 8.6 92 0.6 N 4 9 2 5 1005.8 1005.8 1.6
20/03:00am 10.9 9.5 9.7 92 0.6 NNW 7 9 4 5 1006.0 1006.0 1.6
20/02:30am 10.8 9.0 9.6 92 0.6 NW 9 11 5 6 1005.7 1005.7 1.6
20/02:00am 11.0 9.7 9.8 92 0.6 W 7 11 4 6 1005.8 1005.8 1.6
20/01:30am 11.0 9.3 9.8 92 0.6 N 9 13 5 7 1006.0 1006.0 1.6
20/01:00am 11.2 10.0 10.4 95 0.4 NW 7 9 4 5 1006.2 1006.2 1.6
20/12:30am 12.0 11.0 11.0 94 0.5 NNW 7 11 4 6 1006.1 1006.1 1.6
20/12:00am 12.5 11.3 11.6 94 0.5 NNW 9 13 5 7 1006.0 1006.0 1.6
 
Date/Time
CST
Temp
°C
App
Temp
°C
Dew
Point
°C
Rel
Hum
%
Delta-T
°C
Wind Press
QNH
hPa
Press
MSL
hPa
Rain since
9am
mm
Dir  Spd
km/h
Gust
km/h
Spd
kts
Gust
kts
19/11:30pm 12.5 11.4 11.8 95 0.4 NNW 9 11 5 6 1006.0 1006.0 1.6
19/11:00pm 12.4 11.2 11.6 95 0.4 N 9 13 5 7 1006.1 1006.1 1.6
19/10:30pm 12.9 11.4 12.0 94 0.5 NNW 11 13 6 7 1005.8 1005.8 1.6
19/10:00pm 13.7 12.7 12.4 92 0.7 NNW 9 11 5 6 1005.8 1005.8 1.6
19/09:30pm 14.6 13.3 12.6 88 1.1 N 11 11 6 6 1005.9 1005.9 1.6
19/09:00pm 15.1 13.8 12.6 85 1.4 NNW 11 15 6 8 1006.2 1006.2 1.6
19/08:30pm 15.1 13.8 12.4 84 1.5 N 11 13 6 7 1006.1 1006.1 1.6
19/08:00pm 15.5 14.2 12.4 82 1.7 NNE 11 13 6 7 1005.7 1005.7 1.6
19/07:30pm 16.1 15.6 12.5 79 2.0 N 7 9 4 5 1005.7 1005.7 1.6
19/07:00pm 16.3 16.6 12.1 76 2.3 N 2 7 1 4 1005.5 1005.5 1.6
19/06:30pm 16.2 15.1 11.8 75 2.4 N 9 13 5 7 1005.2 1005.2 1.6
19/06:00pm 16.5 14.9 11.5 72 2.7 N 11 15 6 8 1005.2 1005.2 1.6
19/05:30pm 18.4 14.6 11.1 62 4.0 N 22 30 12 16 1005.0 1005.0 1.6
19/05:00pm 19.0 14.6 11.6 62 4.1 NE 26 33 14 18 1004.9 1004.9 1.6
19/04:30pm 19.2 14.4 11.8 62 4.1 NNE 28 37 15 20 1005.2 1005.2 1.6
19/04:00pm 19.8 14.6 11.7 59 4.5 NNE 30 39 16 21 1005.1 1005.1 1.6
19/03:30pm 21.0 16.2 11.5 54 5.3 NNE 28 37 15 20 1005.2 1005.2 1.6
19/03:00pm 22.1 17.2 11.4 50 6.0 NE 28 39 15 21 1005.2 1005.2 1.6
19/02:30pm 22.4 17.4 12.2 52 5.8 NNE 30 39 16 21 1005.5 1005.5 1.6
19/02:00pm 22.5 18.7 12.5 53 5.7 NNE 24 33 13 18 1005.6 1005.6 1.6
19/01:30pm 20.7 17.6 13.4 63 4.2 NE 22 30 12 16 1006.0 1006.0 1.6
19/01:00pm 20.0 17.5 14.1 69 3.4 NE 20 26 11 14 1006.4 1006.4 1.6
19/12:30pm 19.6 18.1 14.1 70 3.2 NE 15 20 8 11 1006.8 1006.8 1.6

Other formats

Comma delimited format used in spreadsheet applications
http://www.bom.gov.au/fwo/IDS60801/IDS60801.95818.axf

JavaScript Object Notation format (JSON) in row-major order
http://www.bom.gov.au/fwo/IDS60801/IDS60801.95818.json

Data quality

Most of these data are generated automatically and are frequently updated. Quality checks on data are not normally performed. It is possible for incorrect values to appear. Refer to information at About Latest Weather Observations and please check the disclaimer before using these data.